sensor_id;sensor_type;location;lat;lon;timestamp;temperature;humidity
7384;DHT22;3733;47.994;8.820;2022-10-17T00:00:21;10.90;99.90
7384;DHT22;3733;47.994;8.820;2022-10-17T00:02:47;10.80;99.90
7384;DHT22;3733;47.994;8.820;2022-10-17T00:05:12;10.80;99.90
7384;DHT22;3733;47.994;8.820;2022-10-17T00:07:38;10.80;99.90
7384;DHT22;3733;47.994;8.820;2022-10-17T00:10:07;10.70;99.90
7384;DHT22;3733;47.994;8.820;2022-10-17T00:12:33;10.70;99.90
7384;DHT22;3733;47.994;8.820;2022-10-17T00:14:59;10.70;99.90
7384;DHT22;3733;47.994;8.820;2022-10-17T00:17:24;10.70;99.90
7384;DHT22;3733;47.994;8.820;2022-10-17T00:19:50;10.70;99.90
7384;DHT22;3733;47.994;8.820;2022-10-17T00:22:16;10.70;99.90
7384;DHT22;3733;47.994;8.820;2022-10-17T00:24:41;10.70;99.90
7384;DHT22;3733;47.994;8.820;2022-10-17T00:27:07;10.70;99.90
7384;DHT22;3733;47.994;8.820;2022-10-17T00:29:32;10.70;99.90
7384;DHT22;3733;47.994;8.820;2022-10-17T00:31:58;10.70;99.90
7384;DHT22;3733;47.994;8.820;2022-10-17T00:34:24;10.60;99.90
7384;DHT22;3733;47.994;8.820;2022-10-17T00:36:50;10.60;99.90
7384;DHT22;3733;47.994;8.820;2022-10-17T00:39:15;10.60;99.90
7384;DHT22;3733;47.994;8.820;2022-10-17T00:41:41;10.60;99.90
7384;DHT22;3733;47.994;8.820;2022-10-17T00:49:22;10.70;99.90
7384;DHT22;3733;47.994;8.820;2022-10-17T00:51:57;10.70;99.90
7384;DHT22;3733;47.994;8.820;2022-10-17T00:54:26;10.70;99.90
7384;DHT22;3733;47.994;8.820;2022-10-17T00:56:54;10.70;99.90
7384;DHT22;3733;47.994;8.820;2022-10-17T00:59:21;10.60;99.90
7384;DHT22;3733;47.994;8.820;2022-10-17T01:02:08;10.60;99.90
7384;DHT22;3733;47.994;8.820;2022-10-17T01:04:36;10.60;99.90
7384;DHT22;3733;47.994;8.820;2022-10-17T01:07:02;10.60;99.90
7384;DHT22;3733;47.994;8.820;2022-10-17T01:09:27;10.50;99.90
7384;DHT22;3733;47.994;8.820;2022-10-17T01:15:07;10.50;99.90
7384;DHT22;3733;47.994;8.820;2022-10-17T01:30:55;10.40;99.90
7384;DHT22;3733;47.994;8.820;2022-10-17T01:36:31;10.40;99.90
7384;DHT22;3733;47.994;8.820;2022-10-17T01:44:19;10.30;99.90
7384;DHT22;3733;47.994;8.820;2022-10-17T01:46:49;10.30;99.90
7384;DHT22;3733;47.994;8.820;2022-10-17T01:49:20;10.30;99.90
7384;DHT22;3733;47.994;8.820;2022-10-17T01:51:57;10.30;99.90
7384;DHT22;3733;47.994;8.820;2022-10-17T01:56:58;10.30;99.90
7384;DHT22;3733;47.994;8.820;2022-10-17T01:59:45;10.30;99.90
7384;DHT22;3733;47.994;8.820;2022-10-17T02:02:13;10.30;99.90
7384;DHT22;3733;47.994;8.820;2022-10-17T02:04:40;10.30;99.90
7384;DHT22;3733;47.994;8.820;2022-10-17T02:07:10;10.20;99.90
7384;DHT22;3733;47.994;8.820;2022-10-17T02:09:36;10.20;99.90
7384;DHT22;3733;47.994;8.820;2022-10-17T02:12:26;10.20;99.90
7384;DHT22;3733;47.994;8.820;2022-10-17T02:23:30;10.20;99.90
7384;DHT22;3733;47.994;8.820;2022-10-17T02:26:08;10.20;99.90
7384;DHT22;3733;47.994;8.820;2022-10-17T02:31:43;10.20;99.90
7384;DHT22;3733;47.994;8.820;2022-10-17T02:34:17;10.20;99.90
7384;DHT22;3733;47.994;8.820;2022-10-17T02:36:51;10.20;99.90
7384;DHT22;3733;47.994;8.820;2022-10-17T02:39:19;10.20;99.90
7384;DHT22;3733;47.994;8.820;2022-10-17T02:41:48;10.20;99.90
7384;DHT22;3733;47.994;8.820;2022-10-17T02:44:15;10.10;99.90
7384;DHT22;3733;47.994;8.820;2022-10-17T02:46:44;10.10;99.90
7384;DHT22;3733;47.994;8.820;2022-10-17T02:49:22;10.10;99.90
7384;DHT22;3733;47.994;8.820;2022-10-17T02:57:48;10.00;99.90
7384;DHT22;3733;47.994;8.820;2022-10-17T03:00:16;10.00;99.90
7384;DHT22;3733;47.994;8.820;2022-10-17T03:02:50;10.00;99.90
7384;DHT22;3733;47.994;8.820;2022-10-17T03:05:22;10.00;99.90
7384;DHT22;3733;47.994;8.820;2022-10-17T03:07:47;9.90;99.90
7384;DHT22;3733;47.994;8.820;2022-10-17T03:10:13;9.90;99.90
7384;DHT22;3733;47.994;8.820;2022-10-17T03:12:39;9.80;99.90
7384;DHT22;3733;47.994;8.820;2022-10-17T03:15:05;9.80;99.90
7384;DHT22;3733;47.994;8.820;2022-10-17T03:17:31;9.70;99.90
7384;DHT22;3733;47.994;8.820;2022-10-17T03:19:57;9.70;99.90
7384;DHT22;3733;47.994;8.820;2022-10-17T03:22:23;9.70;99.90
7384;DHT22;3733;47.994;8.820;2022-10-17T03:24:48;9.70;99.90
7384;DHT22;3733;47.994;8.820;2022-10-17T03:27:14;9.70;99.90
7384;DHT22;3733;47.994;8.820;2022-10-17T03:29:39;9.60;99.90
7384;DHT22;3733;47.994;8.820;2022-10-17T03:32:05;9.60;99.90
7384;DHT22;3733;47.994;8.820;2022-10-17T03:34:31;9.60;99.90
7384;DHT22;3733;47.994;8.820;2022-10-17T03:36:56;9.60;99.90
7384;DHT22;3733;47.994;8.820;2022-10-17T03:39:22;9.50;99.90
7384;DHT22;3733;47.994;8.820;2022-10-17T03:41:47;9.40;99.90
7384;DHT22;3733;47.994;8.820;2022-10-17T03:44:13;9.40;99.90
7384;DHT22;3733;47.994;8.820;2022-10-17T03:46:38;9.40;99.90
7384;DHT22;3733;47.994;8.820;2022-10-17T03:49:04;9.30;99.90
7384;DHT22;3733;47.994;8.820;2022-10-17T03:51:32;9.30;99.90
7384;DHT22;3733;47.994;8.820;2022-10-17T03:53:57;9.20;99.90
7384;DHT22;3733;47.994;8.820;2022-10-17T03:56:24;9.20;99.90
7384;DHT22;3733;47.994;8.820;2022-10-17T03:58:50;9.20;99.90
7384;DHT22;3733;47.994;8.820;2022-10-17T04:01:17;9.20;99.90
7384;DHT22;3733;47.994;8.820;2022-10-17T04:03:47;9.20;99.90
7384;DHT22;3733;47.994;8.820;2022-10-17T04:06:13;9.20;99.90
7384;DHT22;3733;47.994;8.820;2022-10-17T04:08:38;9.10;99.90
7384;DHT22;3733;47.994;8.820;2022-10-17T04:11:06;9.10;99.90
7384;DHT22;3733;47.994;8.820;2022-10-17T04:13:32;9.10;99.90
7384;DHT22;3733;47.994;8.820;2022-10-17T04:16:02;9.10;99.90
7384;DHT22;3733;47.994;8.820;2022-10-17T04:18:29;9.10;99.90
7384;DHT22;3733;47.994;8.820;2022-10-17T04:20:55;9.10;99.90
7384;DHT22;3733;47.994;8.820;2022-10-17T04:23:20;9.10;99.90
7384;DHT22;3733;47.994;8.820;2022-10-17T04:25:46;9.00;99.90
7384;DHT22;3733;47.994;8.820;2022-10-17T04:28:12;9.00;99.90
7384;DHT22;3733;47.994;8.820;2022-10-17T04:30:37;9.00;99.90
7384;DHT22;3733;47.994;8.820;2022-10-17T04:33:04;8.90;99.90
7384;DHT22;3733;47.994;8.820;2022-10-17T04:35:30;8.90;99.90
7384;DHT22;3733;47.994;8.820;2022-10-17T04:37:55;8.90;99.90
7384;DHT22;3733;47.994;8.820;2022-10-17T04:40:21;8.90;99.90
7384;DHT22;3733;47.994;8.820;2022-10-17T04:42:47;8.90;99.90
7384;DHT22;3733;47.994;8.820;2022-10-17T04:45:12;8.90;99.90
7384;DHT22;3733;47.994;8.820;2022-10-17T04:47:38;8.90;99.90
7384;DHT22;3733;47.994;8.820;2022-10-17T04:50:04;8.90;99.90
7384;DHT22;3733;47.994;8.820;2022-10-17T04:52:30;8.90;99.90
7384;DHT22;3733;47.994;8.820;2022-10-17T04:54:56;8.90;99.90
7384;DHT22;3733;47.994;8.820;2022-10-17T04:57:22;8.80;99.90
7384;DHT22;3733;47.994;8.820;2022-10-17T04:59:49;8.80;99.90
7384;DHT22;3733;47.994;8.820;2022-10-17T05:02:15;8.80;99.90
7384;DHT22;3733;47.994;8.820;2022-10-17T05:04:40;8.80;99.90
7384;DHT22;3733;47.994;8.820;2022-10-17T05:07:06;8.80;99.90
7384;DHT22;3733;47.994;8.820;2022-10-17T05:09:31;8.80;99.90
7384;DHT22;3733;47.994;8.820;2022-10-17T05:11:57;8.80;99.90
7384;DHT22;3733;47.994;8.820;2022-10-17T05:14:23;8.70;99.90
7384;DHT22;3733;47.994;8.820;2022-10-17T05:16:48;8.70;99.90
7384;DHT22;3733;47.994;8.820;2022-10-17T05:19:14;8.70;99.90
7384;DHT22;3733;47.994;8.820;2022-10-17T05:21:40;8.70;99.90
7384;DHT22;3733;47.994;8.820;2022-10-17T05:24:07;8.70;99.90
7384;DHT22;3733;47.994;8.820;2022-10-17T05:26:33;8.70;99.90
7384;DHT22;3733;47.994;8.820;2022-10-17T05:29:00;8.70;99.90
7384;DHT22;3733;47.994;8.820;2022-10-17T05:31:30;8.70;99.90
7384;DHT22;3733;47.994;8.820;2022-10-17T05:33:59;8.70;99.90
7384;DHT22;3733;47.994;8.820;2022-10-17T05:36:25;8.70;99.90
7384;DHT22;3733;47.994;8.820;2022-10-17T05:38:51;8.80;99.90
7384;DHT22;3733;47.994;8.820;2022-10-17T05:41:18;8.70;99.90
7384;DHT22;3733;47.994;8.820;2022-10-17T05:43:44;8.70;99.90
7384;DHT22;3733;47.994;8.820;2022-10-17T05:46:09;8.80;99.90
7384;DHT22;3733;47.994;8.820;2022-10-17T05:48:35;8.70;99.90
7384;DHT22;3733;47.994;8.820;2022-10-17T05:51:06;8.70;99.90
7384;DHT22;3733;47.994;8.820;2022-10-17T05:53:35;8.70;99.90
7384;DHT22;3733;47.994;8.820;2022-10-17T05:56:04;8.70;99.90
7384;DHT22;3733;47.994;8.820;2022-10-17T05:58:30;8.70;99.90
7384;DHT22;3733;47.994;8.820;2022-10-17T06:01:02;8.60;99.90
7384;DHT22;3733;47.994;8.820;2022-10-17T06:03:28;8.60;99.90
7384;DHT22;3733;47.994;8.820;2022-10-17T06:05:54;8.60;99.90
7384;DHT22;3733;47.994;8.820;2022-10-17T06:08:20;8.50;99.90
7384;DHT22;3733;47.994;8.820;2022-10-17T06:10:49;8.50;99.90
7384;DHT22;3733;47.994;8.820;2022-10-17T06:13:16;8.50;99.90
7384;DHT22;3733;47.994;8.820;2022-10-17T06:15:42;8.50;99.90
7384;DHT22;3733;47.994;8.820;2022-10-17T06:18:07;8.50;99.90
7384;DHT22;3733;47.994;8.820;2022-10-17T06:20:33;8.40;99.90
7384;DHT22;3733;47.994;8.820;2022-10-17T06:22:58;8.40;99.90
7384;DHT22;3733;47.994;8.820;2022-10-17T06:25:24;8.40;99.90
7384;DHT22;3733;47.994;8.820;2022-10-17T06:27:50;8.40;99.90
7384;DHT22;3733;47.994;8.820;2022-10-17T06:30:15;8.40;99.90
7384;DHT22;3733;47.994;8.820;2022-10-17T06:32:41;8.40;99.90
7384;DHT22;3733;47.994;8.820;2022-10-17T06:35:07;8.40;99.90
7384;DHT22;3733;47.994;8.820;2022-10-17T06:37:33;8.50;99.90
7384;DHT22;3733;47.994;8.820;2022-10-17T06:39:59;8.50;99.90
7384;DHT22;3733;47.994;8.820;2022-10-17T06:42:25;8.50;99.90
7384;DHT22;3733;47.994;8.820;2022-10-17T06:44:50;8.60;99.90
7384;DHT22;3733;47.994;8.820;2022-10-17T06:47:16;8.60;99.90
7384;DHT22;3733;47.994;8.820;2022-10-17T06:49:41;8.60;99.90
7384;DHT22;3733;47.994;8.820;2022-10-17T06:52:08;8.60;99.90
7384;DHT22;3733;47.994;8.820;2022-10-17T06:54:34;8.60;99.90
7384;DHT22;3733;47.994;8.820;2022-10-17T06:56:59;8.70;99.90
7384;DHT22;3733;47.994;8.820;2022-10-17T06:59:25;8.70;99.90
7384;DHT22;3733;47.994;8.820;2022-10-17T07:01:51;8.80;99.90
7384;DHT22;3733;47.994;8.820;2022-10-17T07:04:16;8.80;99.90
7384;DHT22;3733;47.994;8.820;2022-10-17T07:06:42;8.90;99.90
7384;DHT22;3733;47.994;8.820;2022-10-17T07:09:08;8.90;99.90
7384;DHT22;3733;47.994;8.820;2022-10-17T07:11:34;8.90;99.90
7384;DHT22;3733;47.994;8.820;2022-10-17T07:14:00;9.00;99.90
7384;DHT22;3733;47.994;8.820;2022-10-17T07:16:26;9.00;99.90
7384;DHT22;3733;47.994;8.820;2022-10-17T07:18:52;9.10;99.90
7384;DHT22;3733;47.994;8.820;2022-10-17T07:21:18;9.10;99.90
7384;DHT22;3733;47.994;8.820;2022-10-17T07:23:44;9.10;99.90
7384;DHT22;3733;47.994;8.820;2022-10-17T07:26:12;9.10;99.90
7384;DHT22;3733;47.994;8.820;2022-10-17T07:28:40;9.20;99.90
7384;DHT22;3733;47.994;8.820;2022-10-17T07:31:09;9.30;99.90
7384;DHT22;3733;47.994;8.820;2022-10-17T07:33:35;9.40;99.90
7384;DHT22;3733;47.994;8.820;2022-10-17T07:36:02;9.50;99.90
7384;DHT22;3733;47.994;8.820;2022-10-17T07:38:28;9.50;99.90
7384;DHT22;3733;47.994;8.820;2022-10-17T07:40:58;9.60;99.90
7384;DHT22;3733;47.994;8.820;2022-10-17T07:43:25;9.70;99.90
7384;DHT22;3733;47.994;8.820;2022-10-17T07:45:51;9.70;99.90
7384;DHT22;3733;47.994;8.820;2022-10-17T07:48:18;9.80;99.90
7384;DHT22;3733;47.994;8.820;2022-10-17T07:50:44;9.80;99.90
7384;DHT22;3733;47.994;8.820;2022-10-17T07:53:09;9.90;99.90
7384;DHT22;3733;47.994;8.820;2022-10-17T07:55:39;10.00;99.90
7384;DHT22;3733;47.994;8.820;2022-10-17T07:58:05;10.10;99.90
7384;DHT22;3733;47.994;8.820;2022-10-17T08:00:31;10.10;99.90
7384;DHT22;3733;47.994;8.820;2022-10-17T08:02:56;10.20;99.90
7384;DHT22;3733;47.994;8.820;2022-10-17T08:05:22;10.30;99.90
7384;DHT22;3733;47.994;8.820;2022-10-17T08:07:47;10.40;99.90
7384;DHT22;3733;47.994;8.820;2022-10-17T08:10:14;10.50;99.90
7384;DHT22;3733;47.994;8.820;2022-10-17T08:12:40;10.60;99.90
7384;DHT22;3733;47.994;8.820;2022-10-17T08:15:07;10.70;99.90
7384;DHT22;3733;47.994;8.820;2022-10-17T08:17:34;10.80;99.90
7384;DHT22;3733;47.994;8.820;2022-10-17T08:19:59;10.90;99.90
7384;DHT22;3733;47.994;8.820;2022-10-17T08:22:25;11.00;99.90
7384;DHT22;3733;47.994;8.820;2022-10-17T08:24:51;11.10;99.90
7384;DHT22;3733;47.994;8.820;2022-10-17T08:27:16;11.20;99.90
7384;DHT22;3733;47.994;8.820;2022-10-17T08:29:48;11.30;99.90
7384;DHT22;3733;47.994;8.820;2022-10-17T08:32:18;11.40;99.90
7384;DHT22;3733;47.994;8.820;2022-10-17T08:34:44;11.50;99.90
7384;DHT22;3733;47.994;8.820;2022-10-17T08:37:09;11.50;99.90
7384;DHT22;3733;47.994;8.820;2022-10-17T08:39:35;11.70;99.90
7384;DHT22;3733;47.994;8.820;2022-10-17T08:47:32;12.00;99.90
7384;DHT22;3733;47.994;8.820;2022-10-17T08:50:02;12.10;99.90
7384;DHT22;3733;47.994;8.820;2022-10-17T08:55:03;12.40;99.90
7384;DHT22;3733;47.994;8.820;2022-10-17T08:57:33;12.50;99.90
7384;DHT22;3733;47.994;8.820;2022-10-17T08:59:59;12.60;99.90
7384;DHT22;3733;47.994;8.820;2022-10-17T09:02:53;12.80;99.90
7384;DHT22;3733;47.994;8.820;2022-10-17T09:19:19;13.80;99.90
7384;DHT22;3733;47.994;8.820;2022-10-17T09:21:52;14.00;99.90
7384;DHT22;3733;47.994;8.820;2022-10-17T09:27:03;14.30;99.90
7384;DHT22;3733;47.994;8.820;2022-10-17T09:29:29;14.50;99.90
7384;DHT22;3733;47.994;8.820;2022-10-17T09:32:14;14.70;99.90
7384;DHT22;3733;47.994;8.820;2022-10-17T09:34:40;14.90;99.90
7384;DHT22;3733;47.994;8.820;2022-10-17T09:37:11;15.10;99.90
7384;DHT22;3733;47.994;8.820;2022-10-17T09:39:37;15.20;99.90
7384;DHT22;3733;47.994;8.820;2022-10-17T09:42:03;15.30;99.90
7384;DHT22;3733;47.994;8.820;2022-10-17T09:44:31;15.40;99.90
7384;DHT22;3733;47.994;8.820;2022-10-17T09:47:44;15.60;99.90
7384;DHT22;3733;47.994;8.820;2022-10-17T09:49:49;15.70;99.90
7384;DHT22;3733;47.994;8.820;2022-10-17T09:52:24;15.90;99.90
7384;DHT22;3733;47.994;8.820;2022-10-17T09:54:53;16.10;99.90
7384;DHT22;3733;47.994;8.820;2022-10-17T09:57:21;16.30;99.90
7384;DHT22;3733;47.994;8.820;2022-10-17T10:02:22;16.70;99.90
7384;DHT22;3733;47.994;8.820;2022-10-17T10:05:05;16.90;99.90
7384;DHT22;3733;47.994;8.820;2022-10-17T10:07:36;17.00;99.90
7384;DHT22;3733;47.994;8.820;2022-10-17T10:10:05;17.20;99.90
7384;DHT22;3733;47.994;8.820;2022-10-17T10:12:34;17.30;99.90
7384;DHT22;3733;47.994;8.820;2022-10-17T10:15:01;17.50;99.90
7384;DHT22;3733;47.994;8.820;2022-10-17T10:19:52;17.90;99.90
7384;DHT22;3733;47.994;8.820;2022-10-17T10:22:20;18.00;99.90
7384;DHT22;3733;47.994;8.820;2022-10-17T10:27:32;18.20;99.90
7384;DHT22;3733;47.994;8.820;2022-10-17T10:29:58;18.30;99.90
7384;DHT22;3733;47.994;8.820;2022-10-17T10:32:35;18.50;99.90
7384;DHT22;3733;47.994;8.820;2022-10-17T10:35:22;18.60;99.90
7384;DHT22;3733;47.994;8.820;2022-10-17T10:37:56;18.80;99.90
7384;DHT22;3733;47.994;8.820;2022-10-17T10:40:34;19.00;99.90
7384;DHT22;3733;47.994;8.820;2022-10-17T10:43:02;19.10;99.90
7384;DHT22;3733;47.994;8.820;2022-10-17T10:45:39;19.20;99.90
7384;DHT22;3733;47.994;8.820;2022-10-17T10:53:28;19.80;99.90
7384;DHT22;3733;47.994;8.820;2022-10-17T11:01:30;20.70;98.40
7384;DHT22;3733;47.994;8.820;2022-10-17T11:06:44;21.70;85.90
7384;DHT22;3733;47.994;8.820;2022-10-17T11:22:30;24.40;59.60
7384;DHT22;3733;47.994;8.820;2022-10-17T11:25:44;24.60;56.20
7384;DHT22;3733;47.994;8.820;2022-10-17T11:28:14;24.50;52.80
7384;DHT22;3733;47.994;8.820;2022-10-17T11:31:08;24.60;52.00
7384;DHT22;3733;47.994;8.820;2022-10-17T11:33:59;24.70;50.30
7384;DHT22;3733;47.994;8.820;2022-10-17T11:36:33;24.90;50.50
7384;DHT22;3733;47.994;8.820;2022-10-17T11:39:02;25.00;49.30
7384;DHT22;3733;47.994;8.820;2022-10-17T11:41:40;25.10;49.70
7384;DHT22;3733;47.994;8.820;2022-10-17T11:44:35;25.20;49.50
7384;DHT22;3733;47.994;8.820;2022-10-17T11:49:45;26.00;49.20
7384;DHT22;3733;47.994;8.820;2022-10-17T11:55:25;26.70;48.00
7384;DHT22;3733;47.994;8.820;2022-10-17T11:57:58;27.00;46.50
7384;DHT22;3733;47.994;8.820;2022-10-17T12:00:39;27.20;46.30
7384;DHT22;3733;47.994;8.820;2022-10-17T12:13:53;28.40;43.30
7384;DHT22;3733;47.994;8.820;2022-10-17T12:18:49;28.70;42.00
7384;DHT22;3733;47.994;8.820;2022-10-17T12:21:16;28.70;42.50
7384;DHT22;3733;47.994;8.820;2022-10-17T12:23:51;28.40;42.60
7384;DHT22;3733;47.994;8.820;2022-10-17T12:26:26;28.10;43.20
7384;DHT22;3733;47.994;8.820;2022-10-17T12:28:52;27.80;43.00
7384;DHT22;3733;47.994;8.820;2022-10-17T12:33:48;27.60;45.20
7384;DHT22;3733;47.994;8.820;2022-10-17T12:46:50;28.30;44.40
7384;DHT22;3733;47.994;8.820;2022-10-17T12:52:27;28.40;44.30
7384;DHT22;3733;47.994;8.820;2022-10-17T12:55:16;28.30;43.70
7384;DHT22;3733;47.994;8.820;2022-10-17T13:00:42;28.00;44.20
7384;DHT22;3733;47.994;8.820;2022-10-17T13:03:12;27.80;44.30
7384;DHT22;3733;47.994;8.820;2022-10-17T13:05:42;27.60;44.50
7384;DHT22;3733;47.994;8.820;2022-10-17T13:08:22;27.40;45.50
7384;DHT22;3733;47.994;8.820;2022-10-17T13:10:50;27.30;45.20
7384;DHT22;3733;47.994;8.820;2022-10-17T13:15:52;27.20;45.80
7384;DHT22;3733;47.994;8.820;2022-10-17T13:18:27;27.10;45.80
7384;DHT22;3733;47.994;8.820;2022-10-17T13:20:55;27.00;46.10
7384;DHT22;3733;47.994;8.820;2022-10-17T13:23:25;27.00;46.50
7384;DHT22;3733;47.994;8.820;2022-10-17T13:28:28;26.90;46.90
7384;DHT22;3733;47.994;8.820;2022-10-17T13:30:54;26.80;47.70
7384;DHT22;3733;47.994;8.820;2022-10-17T13:33:36;26.90;48.60
7384;DHT22;3733;47.994;8.820;2022-10-17T13:36:06;27.10;49.10
7384;DHT22;3733;47.994;8.820;2022-10-17T13:38:33;27.00;47.70
7384;DHT22;3733;47.994;8.820;2022-10-17T13:41:00;27.00;47.80
7384;DHT22;3733;47.994;8.820;2022-10-17T13:43:27;27.00;47.70
7384;DHT22;3733;47.994;8.820;2022-10-17T13:45:57;27.00;48.20
7384;DHT22;3733;47.994;8.820;2022-10-17T13:48:27;27.00;47.70
7384;DHT22;3733;47.994;8.820;2022-10-17T13:50:57;27.00;47.70
7384;DHT22;3733;47.994;8.820;2022-10-17T13:53:35;27.10;47.50
7384;DHT22;3733;47.994;8.820;2022-10-17T13:58:51;27.30;47.80
7384;DHT22;3733;47.994;8.820;2022-10-17T14:01:18;27.30;47.80
7384;DHT22;3733;47.994;8.820;2022-10-17T14:03:46;27.40;47.70
7384;DHT22;3733;47.994;8.820;2022-10-17T14:06:23;27.50;48.10
7384;DHT22;3733;47.994;8.820;2022-10-17T14:08:57;27.60;46.50
7384;DHT22;3733;47.994;8.820;2022-10-17T14:14:01;27.80;42.60
7384;DHT22;3733;47.994;8.820;2022-10-17T14:16:38;27.80;42.30
7384;DHT22;3733;47.994;8.820;2022-10-17T14:19:05;28.00;44.40
7384;DHT22;3733;47.994;8.820;2022-10-17T14:21:39;28.10;43.50
7384;DHT22;3733;47.994;8.820;2022-10-17T14:24:15;28.20;43.20
7384;DHT22;3733;47.994;8.820;2022-10-17T14:26:54;28.40;43.50
7384;DHT22;3733;47.994;8.820;2022-10-17T14:29:48;28.60;42.10
7384;DHT22;3733;47.994;8.820;2022-10-17T14:32:14;28.70;41.70
7384;DHT22;3733;47.994;8.820;2022-10-17T14:34:41;28.90;41.10
7384;DHT22;3733;47.994;8.820;2022-10-17T14:37:29;29.00;40.90
7384;DHT22;3733;47.994;8.820;2022-10-17T14:39:58;29.10;40.50
7384;DHT22;3733;47.994;8.820;2022-10-17T14:42:25;29.30;39.90
7384;DHT22;3733;47.994;8.820;2022-10-17T14:44:52;29.60;39.30
7384;DHT22;3733;47.994;8.820;2022-10-17T14:47:21;30.00;38.70
7384;DHT22;3733;47.994;8.820;2022-10-17T14:49:50;30.40;38.00
7384;DHT22;3733;47.994;8.820;2022-10-17T14:54:43;29.90;39.60
7384;DHT22;3733;47.994;8.820;2022-10-17T14:57:39;28.90;40.70
7384;DHT22;3733;47.994;8.820;2022-10-17T15:00:06;27.60;43.50
7384;DHT22;3733;47.994;8.820;2022-10-17T15:02:31;26.60;43.30
7384;DHT22;3733;47.994;8.820;2022-10-17T15:04:57;25.80;44.30
7384;DHT22;3733;47.994;8.820;2022-10-17T15:07:23;25.30;44.90
7384;DHT22;3733;47.994;8.820;2022-10-17T15:09:50;25.70;45.80
7384;DHT22;3733;47.994;8.820;2022-10-17T15:12:19;26.70;43.30
7384;DHT22;3733;47.994;8.820;2022-10-17T15:14:45;28.10;41.00
7384;DHT22;3733;47.994;8.820;2022-10-17T15:17:21;29.20;39.30
7384;DHT22;3733;47.994;8.820;2022-10-17T15:19:48;30.30;38.10
7384;DHT22;3733;47.994;8.820;2022-10-17T15:22:15;31.20;36.80
7384;DHT22;3733;47.994;8.820;2022-10-17T15:24:40;31.70;35.80
7384;DHT22;3733;47.994;8.820;2022-10-17T15:27:15;31.30;35.80
7384;DHT22;3733;47.994;8.820;2022-10-17T15:29:40;30.00;37.70
7384;DHT22;3733;47.994;8.820;2022-10-17T15:32:06;28.50;40.20
7384;DHT22;3733;47.994;8.820;2022-10-17T15:34:32;27.10;43.00
7384;DHT22;3733;47.994;8.820;2022-10-17T15:36:57;25.90;44.70
7384;DHT22;3733;47.994;8.820;2022-10-17T15:39:23;24.90;46.80
7384;DHT22;3733;47.994;8.820;2022-10-17T15:41:48;24.10;48.70
7384;DHT22;3733;47.994;8.820;2022-10-17T15:44:14;23.40;49.70
7384;DHT22;3733;47.994;8.820;2022-10-17T15:46:40;22.90;51.00
7384;DHT22;3733;47.994;8.820;2022-10-17T15:49:13;22.30;52.20
7384;DHT22;3733;47.994;8.820;2022-10-17T15:51:39;21.90;53.30
7384;DHT22;3733;47.994;8.820;2022-10-17T15:54:04;21.50;54.50
7384;DHT22;3733;47.994;8.820;2022-10-17T15:56:36;21.30;54.80
7384;DHT22;3733;47.994;8.820;2022-10-17T15:59:04;21.00;55.90
7384;DHT22;3733;47.994;8.820;2022-10-17T16:01:31;20.70;56.70
7384;DHT22;3733;47.994;8.820;2022-10-17T16:03:56;20.40;58.20
7384;DHT22;3733;47.994;8.820;2022-10-17T16:06:23;20.20;58.90
7384;DHT22;3733;47.994;8.820;2022-10-17T16:08:49;20.00;62.00
7384;DHT22;3733;47.994;8.820;2022-10-17T16:11:40;19.90;66.40
7384;DHT22;3733;47.994;8.820;2022-10-17T16:14:12;19.60;69.70
7384;DHT22;3733;47.994;8.820;2022-10-17T16:16:38;19.50;69.90
7384;DHT22;3733;47.994;8.820;2022-10-17T16:19:04;19.40;74.10
7384;DHT22;3733;47.994;8.820;2022-10-17T16:21:32;19.20;77.80
7384;DHT22;3733;47.994;8.820;2022-10-17T16:23:59;19.10;80.50
7384;DHT22;3733;47.994;8.820;2022-10-17T16:26:26;19.00;84.50
7384;DHT22;3733;47.994;8.820;2022-10-17T16:28:52;18.80;87.80
7384;DHT22;3733;47.994;8.820;2022-10-17T16:31:29;18.70;90.30
7384;DHT22;3733;47.994;8.820;2022-10-17T16:33:57;18.60;92.30
7384;DHT22;3733;47.994;8.820;2022-10-17T16:36:23;18.50;94.10
7384;DHT22;3733;47.994;8.820;2022-10-17T16:38:49;18.40;95.40
7384;DHT22;3733;47.994;8.820;2022-10-17T16:41:18;18.30;96.40
7384;DHT22;3733;47.994;8.820;2022-10-17T16:43:45;18.10;97.40
7384;DHT22;3733;47.994;8.820;2022-10-17T16:46:11;18.00;98.60
7384;DHT22;3733;47.994;8.820;2022-10-17T16:48:36;17.90;99.10
7384;DHT22;3733;47.994;8.820;2022-10-17T16:51:02;17.80;99.80
7384;DHT22;3733;47.994;8.820;2022-10-17T16:53:28;17.70;99.90
7384;DHT22;3733;47.994;8.820;2022-10-17T16:56:03;17.60;99.90
7384;DHT22;3733;47.994;8.820;2022-10-17T16:58:29;17.40;99.90
7384;DHT22;3733;47.994;8.820;2022-10-17T17:01:02;17.40;99.90
7384;DHT22;3733;47.994;8.820;2022-10-17T17:03:28;17.30;99.90
7384;DHT22;3733;47.994;8.820;2022-10-17T17:05:54;17.20;99.90
7384;DHT22;3733;47.994;8.820;2022-10-17T17:08:20;17.10;99.90
7384;DHT22;3733;47.994;8.820;2022-10-17T17:10:46;17.00;99.90
7384;DHT22;3733;47.994;8.820;2022-10-17T17:13:16;16.90;99.90
7384;DHT22;3733;47.994;8.820;2022-10-17T17:15:41;16.80;99.90
7384;DHT22;3733;47.994;8.820;2022-10-17T17:18:07;16.70;99.90
7384;DHT22;3733;47.994;8.820;2022-10-17T17:20:33;16.60;99.90
7384;DHT22;3733;47.994;8.820;2022-10-17T17:22:59;16.50;99.90
7384;DHT22;3733;47.994;8.820;2022-10-17T17:25:24;16.40;99.90
7384;DHT22;3733;47.994;8.820;2022-10-17T17:27:50;16.40;99.90
7384;DHT22;3733;47.994;8.820;2022-10-17T17:30:16;16.30;99.90
7384;DHT22;3733;47.994;8.820;2022-10-17T17:32:41;16.20;99.90
7384;DHT22;3733;47.994;8.820;2022-10-17T17:35:07;16.10;99.90
7384;DHT22;3733;47.994;8.820;2022-10-17T17:37:34;16.00;99.90
7384;DHT22;3733;47.994;8.820;2022-10-17T17:39:59;16.00;99.90
7384;DHT22;3733;47.994;8.820;2022-10-17T17:42:25;16.00;99.90
7384;DHT22;3733;47.994;8.820;2022-10-17T17:44:51;15.90;99.90
7384;DHT22;3733;47.994;8.820;2022-10-17T17:47:17;15.80;99.90
7384;DHT22;3733;47.994;8.820;2022-10-17T17:49:42;15.80;99.90
7384;DHT22;3733;47.994;8.820;2022-10-17T17:52:08;15.70;99.90
7384;DHT22;3733;47.994;8.820;2022-10-17T17:54:33;15.70;99.90
7384;DHT22;3733;47.994;8.820;2022-10-17T17:56:59;15.60;99.90
7384;DHT22;3733;47.994;8.820;2022-10-17T17:59:25;15.60;99.90
7384;DHT22;3733;47.994;8.820;2022-10-17T18:01:50;15.50;99.90
7384;DHT22;3733;47.994;8.820;2022-10-17T18:04:16;15.40;99.90
7384;DHT22;3733;47.994;8.820;2022-10-17T18:06:41;15.30;99.90
7384;DHT22;3733;47.994;8.820;2022-10-17T18:09:08;15.20;99.90
7384;DHT22;3733;47.994;8.820;2022-10-17T18:11:34;15.20;99.90
7384;DHT22;3733;47.994;8.820;2022-10-17T18:14:07;15.10;99.90
7384;DHT22;3733;47.994;8.820;2022-10-17T18:16:35;15.00;99.90
7384;DHT22;3733;47.994;8.820;2022-10-17T18:19:04;15.00;99.90
7384;DHT22;3733;47.994;8.820;2022-10-17T18:21:30;14.90;99.90
7384;DHT22;3733;47.994;8.820;2022-10-17T18:23:56;14.90;99.90
7384;DHT22;3733;47.994;8.820;2022-10-17T18:26:21;14.80;99.90
7384;DHT22;3733;47.994;8.820;2022-10-17T18:28:47;14.80;99.90
7384;DHT22;3733;47.994;8.820;2022-10-17T18:31:18;14.70;99.90
7384;DHT22;3733;47.994;8.820;2022-10-17T18:33:50;14.70;99.90
7384;DHT22;3733;47.994;8.820;2022-10-17T18:36:16;14.70;99.90
7384;DHT22;3733;47.994;8.820;2022-10-17T18:38:42;14.60;99.90
7384;DHT22;3733;47.994;8.820;2022-10-17T18:41:16;14.60;99.90
7384;DHT22;3733;47.994;8.820;2022-10-17T18:43:44;14.50;99.90
7384;DHT22;3733;47.994;8.820;2022-10-17T18:46:13;14.50;99.90
7384;DHT22;3733;47.994;8.820;2022-10-17T18:48:40;14.40;99.90
7384;DHT22;3733;47.994;8.820;2022-10-17T18:51:06;14.40;99.90
7384;DHT22;3733;47.994;8.820;2022-10-17T18:53:32;14.40;99.90
7384;DHT22;3733;47.994;8.820;2022-10-17T18:55:57;14.30;99.90